createdAt,value
2022-10-31T00:01:01.708Z,4.80
2022-10-31T00:03:28.896Z,4.72
2022-10-31T00:05:56.273Z,4.95
2022-10-31T00:08:23.603Z,4.50
2022-10-31T00:10:50.894Z,5.18
2022-10-31T00:13:18.167Z,4.85
2022-10-31T00:15:45.581Z,4.55
2022-10-31T00:18:12.801Z,4.18
2022-10-31T00:20:40.567Z,4.50
2022-10-31T00:23:08.245Z,4.40
2022-10-31T00:25:37.133Z,4.18
2022-10-31T00:28:05.466Z,4.68
2022-10-31T00:30:33.226Z,4.43
2022-10-31T00:33:00.813Z,4.28
2022-10-31T00:35:28.486Z,3.95
2022-10-31T00:37:55.825Z,4.80
2022-10-31T00:40:23.103Z,4.35
2022-10-31T00:42:50.520Z,4.53
2022-10-31T00:45:17.901Z,4.50
2022-10-31T00:47:45.137Z,5.07
2022-10-31T00:50:12.779Z,4.80
2022-10-31T00:52:40.050Z,4.90
2022-10-31T00:55:07.668Z,4.78
2022-10-31T00:57:35.045Z,4.65
2022-10-31T01:00:03.871Z,4.88
2022-10-31T01:02:31.328Z,4.80
2022-10-31T01:04:58.796Z,4.43
2022-10-31T01:07:26.107Z,4.93
2022-10-31T01:09:53.894Z,4.60
2022-10-31T01:12:21.264Z,4.75
2022-10-31T01:14:48.706Z,5.20
2022-10-31T01:17:18.977Z,4.70
2022-10-31T01:19:47.915Z,4.68
2022-10-31T01:22:15.154Z,4.82
2022-10-31T01:24:42.413Z,4.72
2022-10-31T01:27:09.654Z,4.80
2022-10-31T01:29:36.972Z,4.28
2022-10-31T01:32:04.293Z,4.72
2022-10-31T01:34:31.741Z,4.75
2022-10-31T01:36:59.153Z,4.80
2022-10-31T01:39:26.427Z,5.05
2022-10-31T01:41:54.216Z,4.85
2022-10-31T01:44:21.485Z,5.20
2022-10-31T01:46:50.427Z,4.95
2022-10-31T01:49:26.453Z,5.05
2022-10-31T01:51:56.547Z,4.85
2022-10-31T01:54:25.940Z,4.72
2022-10-31T01:56:55.004Z,4.60
2022-10-31T01:59:23.686Z,4.72
2022-10-31T02:01:52.337Z,5.10
2022-10-31T02:04:20.833Z,4.40
2022-10-31T02:06:51.459Z,4.60
2022-10-31T02:09:24.456Z,4.32
2022-10-31T02:11:53.560Z,5.32
2022-10-31T02:14:22.823Z,5.13
2022-10-31T02:16:52.377Z,5.07
2022-10-31T02:19:24.497Z,5.13
2022-10-31T02:21:56.859Z,4.93
2022-10-31T02:24:24.135Z,5.22
2022-10-31T02:26:59.881Z,4.53
2022-10-31T02:29:35.458Z,4.97
2022-10-31T02:32:05.998Z,4.63
2022-10-31T02:34:37.608Z,4.72
2022-10-31T02:37:16.230Z,4.50
2022-10-31T02:39:49.492Z,4.97
2022-10-31T02:42:25.536Z,4.68
2022-10-31T02:44:57.097Z,5.00
2022-10-31T02:47:28.520Z,5.13
2022-10-31T02:50:10.602Z,5.15
2022-10-31T02:52:39.615Z,5.10
2022-10-31T02:55:25.834Z,4.97
2022-10-31T02:58:03.519Z,5.20
2022-10-31T03:00:35.834Z,4.57
2022-10-31T03:03:16.428Z,5.40
2022-10-31T03:05:43.809Z,5.40
2022-10-31T03:08:14.960Z,5.00
2022-10-31T03:10:43.533Z,5.07
2022-10-31T03:13:13.724Z,4.75
2022-10-31T03:15:45.417Z,4.93
2022-10-31T03:18:30.199Z,5.15
2022-10-31T03:20:59.670Z,5.53
2022-10-31T03:23:27.071Z,5.20
2022-10-31T03:25:55.414Z,5.53
2022-10-31T03:28:30.340Z,4.95
2022-10-31T03:30:59.712Z,5.38
2022-10-31T03:33:31.947Z,5.10
2022-10-31T03:36:01.366Z,5.20
2022-10-31T03:38:30.738Z,5.07
2022-10-31T03:40:59.995Z,4.90
2022-10-31T03:43:33.995Z,5.50
2022-10-31T03:46:01.416Z,6.30
2022-10-31T03:48:28.957Z,5.50
2022-10-31T03:51:05.822Z,5.20
2022-10-31T03:53:36.285Z,5.25
2022-10-31T03:56:08.038Z,5.82
2022-10-31T03:58:38.390Z,5.05
2022-10-31T04:01:08.442Z,6.93
2022-10-31T04:03:37.989Z,5.28
2022-10-31T04:06:10.867Z,5.40
2022-10-31T04:08:42.156Z,5.68
2022-10-31T04:11:13.509Z,5.30
2022-10-31T04:13:44.082Z,5.80
2022-10-31T04:16:17.362Z,5.78
2022-10-31T04:18:45.708Z,5.53
2022-10-31T04:21:12.912Z,5.55
2022-10-31T04:23:40.268Z,5.72
2022-10-31T04:26:25.917Z,5.63
2022-10-31T04:28:53.296Z,5.22
2022-10-31T04:31:20.654Z,5.80
2022-10-31T04:33:50.061Z,5.25
2022-10-31T04:36:18.831Z,5.38
2022-10-31T04:38:46.314Z,5.10
2022-10-31T04:41:27.307Z,5.80
2022-10-31T04:44:02.256Z,5.40
2022-10-31T04:46:29.635Z,5.50
2022-10-31T04:48:58.544Z,5.60
2022-10-31T04:51:26.018Z,5.32
2022-10-31T04:53:54.164Z,5.68
2022-10-31T04:56:33.534Z,5.25
2022-10-31T04:59:04.619Z,5.05
2022-10-31T05:01:44.487Z,5.28
2022-10-31T05:04:12.458Z,5.10
2022-10-31T05:06:39.778Z,5.07
2022-10-31T05:09:07.170Z,4.97
2022-10-31T05:11:35.174Z,5.35
2022-10-31T05:14:17.266Z,5.13
2022-10-31T05:17:04.885Z,5.10
2022-10-31T05:19:50.840Z,5.38
2022-10-31T05:22:36.974Z,5.05
2022-10-31T05:25:05.031Z,5.60
2022-10-31T05:27:32.269Z,4.93
2022-10-31T05:32:27.918Z,5.35
2022-10-31T05:35:16.935Z,5.32
2022-10-31T05:38:02.987Z,5.80
2022-10-31T05:40:30.707Z,5.35
2022-10-31T05:42:59.731Z,5.50
2022-10-31T05:45:27.739Z,5.65
2022-10-31T05:48:02.206Z,5.85
2022-10-31T05:51:07.898Z,5.47
2022-10-31T05:53:35.260Z,5.60
2022-10-31T05:56:02.590Z,5.80
2022-10-31T05:58:30.584Z,6.00
2022-10-31T06:01:05.090Z,6.07
2022-10-31T06:03:33.761Z,6.18
2022-10-31T06:06:04.056Z,6.25
2022-10-31T06:08:36.505Z,5.72
2022-10-31T06:11:07.350Z,6.30
2022-10-31T06:13:55.054Z,5.97
2022-10-31T06:16:32.345Z,6.43
2022-10-31T06:19:10.422Z,6.78
2022-10-31T06:21:37.709Z,6.97
2022-10-31T06:24:05.103Z,7.05
2022-10-31T06:27:06.972Z,7.60
2022-10-31T06:29:34.755Z,7.10
2022-10-31T06:32:15.732Z,7.45
2022-10-31T06:34:50.415Z,8.13
2022-10-31T06:37:17.797Z,7.80
2022-10-31T06:39:47.999Z,7.88
2022-10-31T06:42:17.677Z,8.40
2022-10-31T06:44:44.991Z,8.32
2022-10-31T06:47:31.276Z,8.20
2022-10-31T06:50:11.539Z,8.00
2022-10-31T06:52:38.996Z,8.45
2022-10-31T06:55:06.456Z,8.45
2022-10-31T06:57:34.771Z,8.48
2022-10-31T07:00:02.060Z,9.00
2022-10-31T07:02:39.852Z,8.35
2022-10-31T07:05:07.303Z,8.65
2022-10-31T07:07:34.488Z,9.00
2022-10-31T07:10:02.113Z,8.82
2022-10-31T07:12:45.473Z,8.93
2022-10-31T07:15:12.809Z,8.98
2022-10-31T07:17:40.175Z,9.05
2022-10-31T07:20:09.520Z,9.80
2022-10-31T07:22:37.751Z,8.57
2022-10-31T07:25:07.858Z,9.35
2022-10-31T07:27:53.662Z,8.32
2022-10-31T07:30:22.364Z,9.15
2022-10-31T07:32:52.609Z,7.80
2022-10-31T07:35:22.659Z,8.57
2022-10-31T07:37:57.247Z,8.80
2022-10-31T07:40:25.313Z,9.43
2022-10-31T07:42:54.848Z,9.13
2022-10-31T07:45:41.165Z,8.85
2022-10-31T07:48:26.749Z,9.18
2022-10-31T07:51:12.616Z,10.40
2022-10-31T07:54:08.697Z,9.68
2022-10-31T07:56:36.064Z,9.07
2022-10-31T07:59:03.669Z,10.98
2022-10-31T08:01:31.003Z,10.35
2022-10-31T08:04:33.398Z,12.07
2022-10-31T08:07:19.570Z,14.18
2022-10-31T08:09:54.500Z,14.73
2022-10-31T08:12:25.851Z,15.75
2022-10-31T08:14:54.278Z,18.10
2022-10-31T08:17:21.621Z,16.40
2022-10-31T08:19:54.931Z,16.83
2022-10-31T08:22:27.683Z,14.57
2022-10-31T08:24:55.027Z,13.70
2022-10-31T08:27:22.852Z,11.68
2022-10-31T08:29:50.488Z,12.38
2022-10-31T08:32:17.830Z,12.18
2022-10-31T08:35:03.767Z,11.60
2022-10-31T08:37:36.774Z,10.82
2022-10-31T08:40:06.432Z,10.05
2022-10-31T08:42:35.602Z,9.50
2022-10-31T08:45:03.298Z,10.32
2022-10-31T08:47:32.713Z,10.15
2022-10-31T08:50:00.005Z,12.02
2022-10-31T08:52:51.112Z,11.50
2022-10-31T08:55:15.335Z,7.70
2022-10-31T08:58:04.120Z,7.50
2022-10-31T09:00:40.172Z,8.07
2022-10-31T09:05:43.893Z,8.02
2022-10-31T09:08:16.439Z,9.40
2022-10-31T09:10:46.570Z,9.95
2022-10-31T09:13:18.282Z,10.95
2022-10-31T09:16:04.211Z,10.88
2022-10-31T09:18:32.969Z,11.80
2022-10-31T09:21:01.219Z,9.75
2022-10-31T09:23:31.105Z,9.70
2022-10-31T09:26:03.199Z,9.82
2022-10-31T09:28:37.015Z,9.63
2022-10-31T09:31:10.382Z,10.13
2022-10-31T09:33:56.497Z,9.40
2022-10-31T09:36:54.829Z,9.88
2022-10-31T09:39:25.210Z,11.32
2022-10-31T09:42:24.395Z,10.35
2022-10-31T09:44:52.405Z,9.25
2022-10-31T09:47:37.456Z,9.75
2022-10-31T09:50:47.607Z,10.48
2022-10-31T09:53:37.124Z,9.43
2022-10-31T09:56:07.944Z,9.95
2022-10-31T09:58:39.095Z,9.38
2022-10-31T10:01:07.338Z,10.48
2022-10-31T10:03:41.575Z,9.48
2022-10-31T10:06:30.413Z,9.18
2022-10-31T10:09:32.906Z,9.85
2022-10-31T10:12:26.476Z,10.07
2022-10-31T10:15:06.564Z,10.52
2022-10-31T10:17:47.753Z,9.52
2022-10-31T10:20:15.111Z,9.10
2022-10-31T10:22:50.329Z,8.20
2022-10-31T10:25:25.247Z,8.48
2022-10-31T10:28:11.453Z,10.13
2022-10-31T10:30:54.743Z,10.23
2022-10-31T10:33:40.560Z,10.73
2022-10-31T10:36:13.938Z,10.20
2022-10-31T10:38:49.517Z,10.10
2022-10-31T10:41:19.445Z,10.00
2022-10-31T10:46:44.780Z,9.85
2022-10-31T10:49:30.569Z,10.80
2022-10-31T10:55:09.002Z,9.10
2022-10-31T10:57:36.357Z,9.50
2022-10-31T11:00:19.709Z,8.55
2022-10-31T11:02:49.039Z,9.00
2022-10-31T11:05:22.570Z,9.27
2022-10-31T11:07:49.969Z,9.30
2022-10-31T11:10:20.810Z,8.95
2022-10-31T11:13:05.976Z,10.35
2022-10-31T11:18:03.820Z,9.00
2022-10-31T11:20:38.004Z,8.85
2022-10-31T11:23:19.350Z,9.20
2022-10-31T11:25:51.623Z,9.85
2022-10-31T11:28:19.226Z,9.55
2022-10-31T11:30:48.161Z,10.48
2022-10-31T11:33:27.639Z,8.50
2022-10-31T11:35:58.011Z,9.75
2022-10-31T11:38:28.335Z,8.77
2022-10-31T11:40:57.809Z,8.88
2022-10-31T11:43:25.386Z,8.75
2022-10-31T11:45:52.762Z,8.68
2022-10-31T11:48:22.469Z,8.68
2022-10-31T11:50:59.097Z,8.55
2022-10-31T11:53:29.008Z,8.30
2022-10-31T11:56:08.116Z,7.93
2022-10-31T11:58:35.555Z,8.38
2022-10-31T12:01:02.981Z,7.72
2022-10-31T12:03:53.406Z,7.85
2022-10-31T12:06:26.566Z,7.20
2022-10-31T12:08:53.887Z,6.80
2022-10-31T12:11:40.009Z,7.07
2022-10-31T12:14:13.610Z,8.00
2022-10-31T12:16:46.506Z,7.43
2022-10-31T12:19:22.026Z,7.72
2022-10-31T12:22:06.679Z,7.80
2022-10-31T12:24:40.544Z,7.60
2022-10-31T12:27:22.356Z,7.80
2022-10-31T12:30:10.163Z,7.75
2022-10-31T12:32:44.474Z,8.30
2022-10-31T12:35:17.682Z,8.90
2022-10-31T12:37:54.182Z,8.63
2022-10-31T12:40:24.983Z,9.15
2022-10-31T12:43:06.080Z,9.02
2022-10-31T12:45:35.947Z,9.43
2022-10-31T12:48:06.136Z,8.88
2022-10-31T12:50:35.181Z,9.13
2022-10-31T12:53:21.232Z,9.60
2022-10-31T12:56:27.472Z,11.30
2022-10-31T12:58:59.879Z,9.63
2022-10-31T13:01:27.271Z,10.10
2022-10-31T13:04:16.157Z,9.65
2022-10-31T13:06:50.684Z,9.93
2022-10-31T13:09:23.782Z,10.45
2022-10-31T13:11:55.432Z,9.73
2022-10-31T13:14:28.530Z,10.70
2022-10-31T13:16:56.960Z,10.75
2022-10-31T13:19:29.532Z,10.43
2022-10-31T13:22:01.602Z,10.90
2022-10-31T13:24:34.692Z,10.55
2022-10-31T13:27:04.277Z,11.43
2022-10-31T13:29:38.079Z,11.50
2022-10-31T13:32:12.434Z,11.70
2022-10-31T13:34:45.041Z,11.30
2022-10-31T13:37:31.016Z,11.57
2022-10-31T13:40:03.587Z,12.07
2022-10-31T13:42:53.815Z,12.05
2022-10-31T13:45:24.758Z,12.07
2022-10-31T13:48:02.444Z,12.60
2022-10-31T13:50:37.305Z,12.52
2022-10-31T13:53:34.821Z,12.70
2022-10-31T13:56:07.634Z,14.98
2022-10-31T13:58:35.065Z,15.50
2022-10-31T14:01:08.659Z,17.25
2022-10-31T14:04:04.659Z,18.33
2022-10-31T14:06:40.856Z,18.38
2022-10-31T14:09:29.925Z,24.85
2022-10-31T14:11:59.948Z,19.15
2022-10-31T14:14:30.748Z,18.10
2022-10-31T14:16:59.555Z,17.38
2022-10-31T14:19:28.304Z,17.55
2022-10-31T14:21:59.060Z,17.58
2022-10-31T14:24:26.328Z,17.60
2022-10-31T14:26:56.338Z,15.82
2022-10-31T14:29:25.818Z,17.13
2022-10-31T14:31:53.048Z,15.98
2022-10-31T14:34:23.222Z,16.98
2022-10-31T14:36:54.403Z,17.98
2022-10-31T14:39:27.667Z,17.73
2022-10-31T14:42:03.821Z,17.40
2022-10-31T14:44:41.415Z,16.63
2022-10-31T14:47:11.576Z,16.70
2022-10-31T14:49:57.072Z,17.90
2022-10-31T14:52:28.220Z,17.88
2022-10-31T14:55:02.384Z,18.23
2022-10-31T14:57:37.665Z,17.48
2022-10-31T15:00:18.727Z,18.05
2022-10-31T15:03:04.858Z,18.92
2022-10-31T15:05:33.908Z,18.65
2022-10-31T15:08:01.300Z,18.00
2022-10-31T15:10:31.007Z,17.65
2022-10-31T15:13:09.716Z,18.55
2022-10-31T15:15:40.372Z,18.33
2022-10-31T15:18:08.325Z,18.42
2022-10-31T15:20:45.900Z,19.58
2022-10-31T15:23:20.231Z,18.23
2022-10-31T15:25:49.580Z,18.13
2022-10-31T15:28:22.648Z,18.27
2022-10-31T15:30:54.975Z,18.52
2022-10-31T15:35:59.264Z,18.30
2022-10-31T15:38:30.052Z,17.83
2022-10-31T15:40:57.434Z,18.92
2022-10-31T15:43:27.596Z,18.88
2022-10-31T15:46:02.136Z,18.85
2022-10-31T15:48:32.793Z,18.30
2022-10-31T15:51:00.563Z,20.52
2022-10-31T15:53:29.565Z,19.15
2022-10-31T15:55:59.721Z,19.90
2022-10-31T15:58:28.117Z,19.30
2022-10-31T16:01:02.513Z,19.65
2022-10-31T16:03:34.102Z,19.40
2022-10-31T16:06:05.822Z,21.42
2022-10-31T16:08:33.233Z,21.60
2022-10-31T16:11:02.670Z,22.17
2022-10-31T16:13:35.046Z,21.73
2022-10-31T16:16:29.295Z,20.92
2022-10-31T16:18:51.968Z,21.13
2022-10-31T16:21:25.642Z,20.42
2022-10-31T16:23:58.218Z,19.93
2022-10-31T16:26:26.600Z,20.65
2022-10-31T16:29:03.381Z,19.98
2022-10-31T16:31:37.805Z,20.65
2022-10-31T16:34:06.621Z,19.67
2022-10-31T16:36:39.393Z,20.10
2022-10-31T16:39:06.926Z,20.42
2022-10-31T16:41:36.970Z,20.73
2022-10-31T16:44:05.685Z,19.67
2022-10-31T16:46:32.935Z,20.52
2022-10-31T16:49:00.268Z,21.02
2022-10-31T16:51:27.451Z,22.55
2022-10-31T16:53:54.760Z,21.17
2022-10-31T16:56:25.663Z,19.02
2022-10-31T16:58:53.001Z,19.25
2022-10-31T17:01:20.481Z,18.55
2022-10-31T17:03:47.929Z,18.05
2022-10-31T17:06:15.614Z,18.25
2022-10-31T17:08:43.080Z,20.35
2022-10-31T17:11:15.447Z,18.30
2022-10-31T17:13:42.919Z,17.38
2022-10-31T17:16:10.244Z,17.42
2022-10-31T17:18:37.676Z,16.45
2022-10-31T17:21:06.276Z,15.65
2022-10-31T17:23:34.045Z,16.45
2022-10-31T17:26:01.424Z,15.50
2022-10-31T17:28:28.781Z,15.95
2022-10-31T17:30:58.417Z,15.73
2022-10-31T17:33:25.958Z,15.82
2022-10-31T17:35:53.225Z,15.43
2022-10-31T17:38:20.742Z,14.85
2022-10-31T17:43:20.317Z,13.18
2022-10-31T17:45:47.788Z,12.60
2022-10-31T17:48:15.220Z,12.73
2022-10-31T17:50:42.749Z,12.60
2022-10-31T17:53:10.249Z,12.70
2022-10-31T17:55:37.846Z,13.02
2022-10-31T17:58:05.361Z,12.60
2022-10-31T18:00:32.782Z,11.77
2022-10-31T18:03:00.620Z,12.57
2022-10-31T18:05:28.026Z,12.40
2022-10-31T18:07:57.304Z,11.75
2022-10-31T18:10:27.004Z,11.82
2022-10-31T18:12:54.214Z,12.57
2022-10-31T18:15:21.570Z,10.82
2022-10-31T18:17:48.829Z,11.38
2022-10-31T18:20:16.065Z,11.15
2022-10-31T18:22:43.358Z,10.98
2022-10-31T18:25:10.754Z,10.45
2022-10-31T18:27:38.213Z,11.05
2022-10-31T18:30:08.190Z,10.32
2022-10-31T18:32:36.446Z,10.68
2022-10-31T18:35:03.791Z,11.63
2022-10-31T18:37:31.278Z,11.13
2022-10-31T18:39:58.545Z,10.45
2022-10-31T18:42:26.504Z,10.63
2022-10-31T18:44:53.761Z,9.75
2022-10-31T18:47:21.777Z,10.07
2022-10-31T18:49:48.984Z,10.70
2022-10-31T18:52:16.489Z,9.15
2022-10-31T18:54:44.787Z,9.43
2022-10-31T18:57:12.125Z,9.27
2022-10-31T18:59:39.397Z,10.02
2022-10-31T19:02:07.383Z,9.30
2022-10-31T19:04:34.794Z,9.38
2022-10-31T19:07:02.223Z,8.75
2022-10-31T19:09:30.990Z,9.23
2022-10-31T19:11:58.237Z,9.20
2022-10-31T19:14:25.519Z,8.55
2022-10-31T19:16:53.004Z,8.88
2022-10-31T19:19:21.003Z,8.95
2022-10-31T19:21:48.312Z,8.40
2022-10-31T19:24:15.567Z,8.82
2022-10-31T19:26:42.898Z,9.57
2022-10-31T19:29:10.769Z,9.60
2022-10-31T19:31:38.149Z,7.72
2022-10-31T19:34:05.428Z,7.57
2022-10-31T19:36:32.788Z,7.40
2022-10-31T19:39:00.054Z,6.45
2022-10-31T19:41:28.247Z,7.45
2022-10-31T19:43:55.841Z,7.47
2022-10-31T19:46:40.397Z,7.07
2022-10-31T19:49:11.581Z,8.02
2022-10-31T19:51:38.914Z,7.10
2022-10-31T19:54:06.262Z,7.15
2022-10-31T19:56:33.524Z,7.25
2022-10-31T19:59:02.996Z,7.13
2022-10-31T20:01:30.867Z,6.82
2022-10-31T20:03:58.239Z,7.47
2022-10-31T20:06:26.819Z,7.13
2022-10-31T20:08:55.747Z,6.75
2022-10-31T20:11:23.895Z,6.90
2022-10-31T20:13:51.548Z,7.30
2022-10-31T20:16:19.125Z,6.15
2022-10-31T20:18:47.072Z,6.45
2022-10-31T20:21:15.738Z,7.35
2022-10-31T20:23:43.109Z,7.05
2022-10-31T20:26:12.724Z,6.05
2022-10-31T20:28:43.198Z,6.70
2022-10-31T20:31:12.289Z,6.68
2022-10-31T20:33:39.910Z,6.97
2022-10-31T20:36:08.048Z,6.63
2022-10-31T20:38:37.994Z,5.95
2022-10-31T20:41:06.595Z,6.18
2022-10-31T20:43:34.355Z,6.72
2022-10-31T20:46:02.488Z,6.15
2022-10-31T20:48:30.162Z,6.95
2022-10-31T20:51:01.404Z,6.72
2022-10-31T20:53:29.474Z,6.60
2022-10-31T20:56:09.794Z,6.57
2022-10-31T20:58:37.761Z,6.28
2022-10-31T21:01:05.682Z,6.38
2022-10-31T21:03:36.462Z,6.50
2022-10-31T21:06:05.078Z,6.80
2022-10-31T21:08:32.723Z,6.47
2022-10-31T21:11:00.413Z,6.07
2022-10-31T21:13:31.858Z,6.28
2022-10-31T21:16:04.069Z,5.80
2022-10-31T21:18:31.675Z,6.07
2022-10-31T21:20:58.951Z,5.53
2022-10-31T21:23:26.315Z,5.88
2022-10-31T21:25:53.826Z,5.80
2022-10-31T21:28:21.223Z,5.55
2022-10-31T21:30:49.693Z,6.20
2022-10-31T21:33:17.111Z,5.70
2022-10-31T21:35:51.395Z,5.97
2022-10-31T21:38:19.263Z,5.28
2022-10-31T21:40:46.603Z,5.95
2022-10-31T21:43:13.915Z,5.18
2022-10-31T21:45:41.122Z,6.35
2022-10-31T21:48:08.468Z,5.07
2022-10-31T21:50:36.077Z,5.40
2022-10-31T21:53:23.514Z,5.07
2022-10-31T21:55:50.851Z,5.38
2022-10-31T21:58:18.192Z,5.43
2022-10-31T22:00:47.706Z,5.18
2022-10-31T22:03:18.207Z,5.50
2022-10-31T22:05:46.763Z,5.50
2022-10-31T22:08:14.265Z,4.95
2022-10-31T22:10:41.590Z,5.70
2022-10-31T22:13:08.807Z,5.90
2022-10-31T22:15:36.341Z,6.10
2022-10-31T22:18:03.887Z,5.75
2022-10-31T22:20:31.573Z,5.50
2022-10-31T22:22:58.955Z,5.55
2022-10-31T22:25:26.260Z,5.53
2022-10-31T22:27:53.522Z,5.25
2022-10-31T22:30:21.115Z,5.28
2022-10-31T22:32:48.425Z,5.70
2022-10-31T22:35:16.052Z,5.82
2022-10-31T22:37:43.297Z,5.45
2022-10-31T22:40:10.938Z,5.05
2022-10-31T22:42:38.202Z,4.97
2022-10-31T22:45:05.613Z,5.68
2022-10-31T22:47:32.884Z,5.05
2022-10-31T22:50:00.158Z,4.80
2022-10-31T22:52:27.599Z,5.05
2022-10-31T22:54:58.392Z,5.10
2022-10-31T22:57:26.685Z,5.60
2022-10-31T22:59:54.611Z,5.47
2022-10-31T23:02:22.524Z,5.05
2022-10-31T23:04:49.853Z,4.47
2022-10-31T23:07:23.071Z,4.68
2022-10-31T23:09:54.235Z,4.68
2022-10-31T23:12:40.351Z,5.20
2022-10-31T23:15:07.854Z,4.35
2022-10-31T23:17:35.112Z,5.47
2022-10-31T23:20:02.547Z,4.68
2022-10-31T23:22:29.928Z,4.45
2022-10-31T23:24:57.212Z,4.78
2022-10-31T23:27:25.401Z,4.93
2022-10-31T23:29:54.084Z,4.57
2022-10-31T23:32:25.147Z,4.57
2022-10-31T23:34:54.425Z,5.03
2022-10-31T23:37:23.427Z,4.55
2022-10-31T23:39:50.771Z,4.80
2022-10-31T23:42:18.865Z,5.97
2022-10-31T23:44:46.532Z,4.55
2022-10-31T23:47:13.762Z,4.43
2022-10-31T23:49:41.084Z,4.25
2022-10-31T23:52:08.427Z,4.93
2022-10-31T23:54:35.922Z,5.00
2022-10-31T23:57:03.639Z,4.50
2022-10-31T23:59:31.318Z,4.80
